createdAt,value
2023-05-07T00:01:20.326Z,16.57
2023-05-07T00:03:23.238Z,16.54
2023-05-07T00:05:25.917Z,16.52
2023-05-07T00:07:28.454Z,16.49
2023-05-07T00:09:32.358Z,16.48
2023-05-07T00:11:37.275Z,16.45
2023-05-07T00:13:40.034Z,16.42
2023-05-07T00:15:42.676Z,16.41
2023-05-07T00:17:45.469Z,16.41
2023-05-07T00:19:48.632Z,16.40
2023-05-07T00:21:51.216Z,16.42
2023-05-07T00:23:53.838Z,16.40
2023-05-07T00:25:58.080Z,16.52
2023-05-07T00:28:04.604Z,16.38
2023-05-07T00:30:08.827Z,16.32
2023-05-07T00:32:11.726Z,16.29
2023-05-07T00:34:14.349Z,16.22
2023-05-07T00:36:16.974Z,16.18
2023-05-07T00:38:19.574Z,16.16
2023-05-07T00:40:22.151Z,16.15
2023-05-07T00:42:26.093Z,16.15
2023-05-07T00:44:29.422Z,16.17
2023-05-07T00:46:33.245Z,16.12
2023-05-07T00:48:35.892Z,16.06
2023-05-07T00:50:38.481Z,16.04
2023-05-07T00:52:42.528Z,16.09
2023-05-07T00:54:45.301Z,16.04
2023-05-07T00:56:48.002Z,16.02
2023-05-07T00:58:52.122Z,16.00
2023-05-07T01:00:54.824Z,15.99
2023-05-07T01:02:57.725Z,15.99
2023-05-07T01:05:02.432Z,15.98
2023-05-07T01:07:06.688Z,15.95
2023-05-07T01:09:10.161Z,15.94
2023-05-07T01:11:13.403Z,15.93
2023-05-07T01:13:17.024Z,15.92
2023-05-07T01:15:21.119Z,15.91
2023-05-07T01:17:23.840Z,15.84
2023-05-07T01:19:27.561Z,15.86
2023-05-07T01:21:34.798Z,15.84
2023-05-07T01:23:40.621Z,15.81
2023-05-07T01:25:43.180Z,15.80
2023-05-07T01:27:45.805Z,15.78
2023-05-07T01:29:48.372Z,15.80
2023-05-07T01:31:53.801Z,15.79
2023-05-07T01:33:58.099Z,15.79
2023-05-07T01:36:03.270Z,15.90
2023-05-07T01:38:07.138Z,15.73
2023-05-07T01:40:12.224Z,15.67
2023-05-07T01:42:15.066Z,15.63
2023-05-07T01:44:18.923Z,15.62
2023-05-07T01:46:22.197Z,15.63
2023-05-07T01:48:26.181Z,15.59
2023-05-07T01:50:29.631Z,15.61
2023-05-07T01:52:32.905Z,15.54
2023-05-07T01:54:35.503Z,15.62
2023-05-07T01:56:39.429Z,15.49
2023-05-07T01:58:42.027Z,15.44
2023-05-07T02:00:44.620Z,15.43
2023-05-07T02:02:47.425Z,15.41
2023-05-07T02:04:50.126Z,15.41
2023-05-07T02:06:53.711Z,15.39
2023-05-07T02:08:56.265Z,15.38
2023-05-07T02:10:58.848Z,15.37
2023-05-07T02:13:03.230Z,15.34
2023-05-07T02:15:06.565Z,15.35
2023-05-07T02:17:09.789Z,15.34
2023-05-07T02:19:12.344Z,15.35
2023-05-07T02:21:14.909Z,15.35
2023-05-07T02:23:17.494Z,15.34
2023-05-07T02:25:20.087Z,15.30
2023-05-07T02:27:22.773Z,15.26
2023-05-07T02:29:26.666Z,15.24
2023-05-07T02:31:29.281Z,15.23
2023-05-07T02:33:31.890Z,15.20
2023-05-07T02:35:34.448Z,15.15
2023-05-07T02:37:37.050Z,15.13
2023-05-07T02:39:39.634Z,15.13
2023-05-07T02:41:42.182Z,15.13
2023-05-07T02:43:44.859Z,15.11
2023-05-07T02:45:48.852Z,15.09
2023-05-07T02:47:51.437Z,15.09
2023-05-07T02:49:54.012Z,15.05
2023-05-07T02:51:56.839Z,15.04
2023-05-07T02:53:59.423Z,15.04
2023-05-07T02:56:02.781Z,15.03
2023-05-07T02:58:05.361Z,14.99
2023-05-07T03:00:15.504Z,14.97
2023-05-07T03:02:19.396Z,14.96
2023-05-07T03:04:22.346Z,14.97
2023-05-07T03:06:24.951Z,14.93
2023-05-07T03:08:27.543Z,14.95
2023-05-07T03:10:30.157Z,15.00
2023-05-07T03:12:33.252Z,15.00
2023-05-07T03:14:36.042Z,14.87
2023-05-07T03:16:38.616Z,14.74
2023-05-07T03:18:42.706Z,14.61
2023-05-07T03:20:45.322Z,14.54
2023-05-07T03:22:48.019Z,14.56
2023-05-07T03:24:50.573Z,14.51
2023-05-07T03:26:53.124Z,14.52
2023-05-07T03:28:57.186Z,14.58
2023-05-07T03:30:59.869Z,14.51
2023-05-07T03:33:02.487Z,14.53
2023-05-07T03:35:07.129Z,14.48
2023-05-07T03:37:09.675Z,14.46
2023-05-07T03:39:12.343Z,14.45
2023-05-07T03:41:15.010Z,14.48
2023-05-07T03:43:17.643Z,14.48
2023-05-07T03:45:20.454Z,14.51
2023-05-07T03:47:23.021Z,14.48
2023-05-07T03:49:25.647Z,14.49
2023-05-07T03:51:29.563Z,14.47
2023-05-07T03:53:32.122Z,14.45
2023-05-07T03:55:34.692Z,14.45
2023-05-07T03:57:40.109Z,14.36
2023-05-07T03:59:42.685Z,14.31
2023-05-07T04:01:45.876Z,14.30
2023-05-07T04:03:48.711Z,14.31
2023-05-07T04:05:51.477Z,14.33
2023-05-07T04:07:55.476Z,14.34
2023-05-07T04:09:58.026Z,14.34
2023-05-07T04:12:00.625Z,14.35
2023-05-07T04:14:03.287Z,14.36
2023-05-07T04:16:07.097Z,14.36
2023-05-07T04:18:09.810Z,14.38
2023-05-07T04:20:16.897Z,14.36
2023-05-07T04:22:19.467Z,14.34
2023-05-07T04:24:23.735Z,14.35
2023-05-07T04:26:26.364Z,14.33
2023-05-07T04:28:28.948Z,14.34
2023-05-07T04:30:31.602Z,14.36
2023-05-07T04:32:34.164Z,14.36
2023-05-07T04:34:36.727Z,14.36
2023-05-07T04:36:39.788Z,14.34
2023-05-07T04:38:42.663Z,14.34
2023-05-07T04:40:47.826Z,14.36
2023-05-07T04:42:50.408Z,14.36
2023-05-07T04:44:55.727Z,14.35
2023-05-07T04:46:58.460Z,14.36
2023-05-07T04:49:01.069Z,14.39
2023-05-07T04:51:03.674Z,14.38
2023-05-07T04:53:06.279Z,14.38
2023-05-07T04:55:09.887Z,14.40
2023-05-07T04:57:14.231Z,14.41
2023-05-07T04:59:16.804Z,14.41
2023-05-07T05:01:19.417Z,14.40
2023-05-07T05:03:22.200Z,14.40
2023-05-07T05:05:24.830Z,14.43
2023-05-07T05:07:27.423Z,14.43
2023-05-07T05:09:30.005Z,14.47
2023-05-07T05:11:32.597Z,14.49
2023-05-07T05:13:36.517Z,14.54
2023-05-07T05:15:39.061Z,14.58
2023-05-07T05:17:41.774Z,14.62
2023-05-07T05:19:44.436Z,14.65
2023-05-07T05:21:47.033Z,14.89
2023-05-07T05:23:49.624Z,14.82
2023-05-07T05:25:52.171Z,14.75
2023-05-07T05:27:54.767Z,14.72
2023-05-07T05:29:58.680Z,14.73
2023-05-07T05:32:01.267Z,14.72
2023-05-07T05:34:04.483Z,14.72
2023-05-07T05:36:07.893Z,14.75
2023-05-07T05:38:10.667Z,14.74
2023-05-07T05:40:14.056Z,14.76
2023-05-07T05:42:16.623Z,14.78
2023-05-07T05:44:19.208Z,15.08
2023-05-07T05:46:23.163Z,14.99
2023-05-07T05:48:25.890Z,14.94
2023-05-07T05:50:28.546Z,14.96
2023-05-07T05:52:31.243Z,14.97
2023-05-07T05:54:33.792Z,14.99
2023-05-07T05:56:36.438Z,14.97
2023-05-07T05:58:39.065Z,14.98
2023-05-07T06:00:41.848Z,15.03
2023-05-07T06:02:45.999Z,15.05
2023-05-07T06:04:48.678Z,15.09
2023-05-07T06:06:51.276Z,15.12
2023-05-07T06:08:53.851Z,15.17
2023-05-07T06:10:56.416Z,15.22
2023-05-07T06:12:59.012Z,15.23
2023-05-07T06:15:02.393Z,15.26
2023-05-07T06:17:05.415Z,15.30
2023-05-07T06:19:09.473Z,15.30
2023-05-07T06:21:12.251Z,15.33
2023-05-07T06:23:17.929Z,15.35
2023-05-07T06:25:23.504Z,15.37
2023-05-07T06:27:26.133Z,15.39
2023-05-07T06:29:28.716Z,15.43
2023-05-07T06:31:33.277Z,15.57
2023-05-07T06:33:36.354Z,15.54
2023-05-07T06:35:40.388Z,15.85
2023-05-07T06:37:43.658Z,15.80
2023-05-07T06:39:46.244Z,15.95
2023-05-07T06:41:48.805Z,15.81
2023-05-07T06:43:51.404Z,15.79
2023-05-07T06:45:54.006Z,15.87
2023-05-07T06:47:56.641Z,15.77
2023-05-07T06:49:59.201Z,15.78
2023-05-07T06:52:03.093Z,15.78
2023-05-07T06:54:06.271Z,15.79
2023-05-07T06:56:08.900Z,15.80
2023-05-07T06:58:11.465Z,15.97
2023-05-07T07:00:15.460Z,15.98
2023-05-07T07:02:18.547Z,15.94
2023-05-07T07:04:23.327Z,15.92
2023-05-07T07:06:26.470Z,15.91
2023-05-07T07:08:30.360Z,15.91
2023-05-07T07:10:32.952Z,15.91
2023-05-07T07:12:35.552Z,15.98
2023-05-07T07:14:38.129Z,16.13
2023-05-07T07:16:40.982Z,16.10
2023-05-07T07:18:43.652Z,16.04
2023-05-07T07:20:46.596Z,16.17
2023-05-07T07:22:49.162Z,16.10
2023-05-07T07:24:53.105Z,16.10
2023-05-07T07:26:56.607Z,16.20
2023-05-07T07:28:59.198Z,16.37
2023-05-07T07:31:01.830Z,16.29
2023-05-07T07:33:04.625Z,16.33
2023-05-07T07:35:08.490Z,16.38
2023-05-07T07:37:11.124Z,16.38
2023-05-07T07:39:13.664Z,16.42
2023-05-07T07:41:17.569Z,16.61
2023-05-07T07:43:20.136Z,16.54
2023-05-07T07:45:23.153Z,16.56
2023-05-07T07:47:25.762Z,16.64
2023-05-07T07:49:28.388Z,16.64
2023-05-07T07:51:31.433Z,16.69
2023-05-07T07:53:34.029Z,16.74
2023-05-07T07:55:40.641Z,16.83
2023-05-07T07:57:44.631Z,16.82
2023-05-07T07:59:47.260Z,16.85
2023-05-07T08:01:53.366Z,16.86
2023-05-07T08:03:58.942Z,16.89
2023-05-07T08:06:01.568Z,16.98
2023-05-07T08:08:04.320Z,16.96
2023-05-07T08:10:07.397Z,16.97
2023-05-07T08:12:10.095Z,16.98
2023-05-07T08:14:14.357Z,16.97
2023-05-07T08:16:17.030Z,16.98
2023-05-07T08:18:19.588Z,16.99
2023-05-07T08:20:22.431Z,17.00
2023-05-07T08:22:24.991Z,17.00
2023-05-07T08:24:27.571Z,17.01
2023-05-07T08:26:30.138Z,17.01
2023-05-07T08:28:32.717Z,17.04
2023-05-07T08:30:36.666Z,17.05
2023-05-07T08:32:39.287Z,17.06
2023-05-07T08:34:41.865Z,17.08
2023-05-07T08:36:48.049Z,17.08
2023-05-07T08:38:50.611Z,17.11
2023-05-07T08:40:53.315Z,17.12
2023-05-07T08:42:57.089Z,17.15
2023-05-07T08:45:01.777Z,17.21
2023-05-07T08:47:08.779Z,17.24
2023-05-07T08:49:11.400Z,17.30
2023-05-07T08:51:15.313Z,17.30
2023-05-07T08:53:18.592Z,17.33
2023-05-07T08:55:22.103Z,17.34
2023-05-07T08:57:25.399Z,17.35
2023-05-07T08:59:28.174Z,17.38
2023-05-07T09:01:31.041Z,17.41
2023-05-07T09:03:35.412Z,17.45
2023-05-07T09:05:37.978Z,17.47
2023-05-07T09:07:40.548Z,17.49
2023-05-07T09:09:43.099Z,17.52
2023-05-07T09:11:45.650Z,17.54
2023-05-07T09:13:48.248Z,17.57
2023-05-07T09:15:51.166Z,17.61
2023-05-07T09:17:53.766Z,17.71
2023-05-07T09:19:57.700Z,17.72
2023-05-07T09:22:03.874Z,17.75
2023-05-07T09:24:07.149Z,17.78
2023-05-07T09:26:12.833Z,17.82
2023-05-07T09:28:15.436Z,17.87
2023-05-07T09:30:18.215Z,18.25
2023-05-07T09:32:20.934Z,18.14
2023-05-07T09:34:25.029Z,18.08
2023-05-07T09:36:29.122Z,18.17
2023-05-07T09:38:32.126Z,18.15
2023-05-07T09:40:34.802Z,18.17
2023-05-07T09:42:37.395Z,18.18
2023-05-07T09:44:41.191Z,18.22
2023-05-07T09:46:45.707Z,18.23
2023-05-07T09:48:50.220Z,18.29
2023-05-07T09:50:58.570Z,18.27
2023-05-07T09:53:03.353Z,18.28
2023-05-07T09:55:07.132Z,18.34
2023-05-07T09:57:11.554Z,18.60
2023-05-07T09:59:16.635Z,18.57
2023-05-07T10:01:20.314Z,18.61
2023-05-07T10:03:24.603Z,18.65
2023-05-07T10:05:28.091Z,18.71
2023-05-07T10:07:31.741Z,18.69
2023-05-07T10:09:39.405Z,18.70
2023-05-07T10:11:43.040Z,18.70
2023-05-07T10:13:46.457Z,18.72
2023-05-07T10:15:51.102Z,18.72
2023-05-07T10:17:55.406Z,18.74
2023-05-07T10:19:58.038Z,18.77
2023-05-07T10:22:06.671Z,18.94
2023-05-07T10:24:15.821Z,19.09
2023-05-07T10:26:23.994Z,19.10
2023-05-07T10:28:28.805Z,19.10
2023-05-07T10:30:40.496Z,19.21
2023-05-07T10:32:47.381Z,19.17
2023-05-07T10:34:55.433Z,19.20
2023-05-07T10:36:58.914Z,19.22
2023-05-07T10:39:01.591Z,19.26
2023-05-07T10:41:06.462Z,19.28
2023-05-07T10:43:11.319Z,19.44
2023-05-07T10:45:15.116Z,19.45
2023-05-07T10:47:19.871Z,19.51
2023-05-07T10:49:24.531Z,19.55
2023-05-07T10:51:27.258Z,19.61
2023-05-07T10:53:29.814Z,19.67
2023-05-07T10:55:32.408Z,19.67
2023-05-07T10:57:36.872Z,19.68
2023-05-07T10:59:43.789Z,19.67
2023-05-07T11:01:55.037Z,19.64
2023-05-07T11:04:16.085Z,19.60
2023-05-07T11:06:18.799Z,19.58
2023-05-07T11:08:21.376Z,19.61
2023-05-07T11:10:24.194Z,19.62
2023-05-07T11:12:48.984Z,19.56
2023-05-07T11:14:54.909Z,19.55
2023-05-07T11:17:04.545Z,19.53
2023-05-07T11:19:07.181Z,19.50
2023-05-07T11:21:10.324Z,19.47
2023-05-07T11:23:58.108Z,19.42
2023-05-07T11:26:01.470Z,19.43
2023-05-07T11:28:08.105Z,19.41
2023-05-07T11:30:18.634Z,19.42
2023-05-07T11:32:24.788Z,19.41
2023-05-07T11:34:28.507Z,19.51
2023-05-07T11:36:34.129Z,19.63
2023-05-07T11:38:37.814Z,19.71
2023-05-07T11:40:50.941Z,19.82
2023-05-07T11:42:53.483Z,19.85
2023-05-07T11:44:56.109Z,19.82
2023-05-07T11:47:01.442Z,19.75
2023-05-07T11:49:04.320Z,19.75
2023-05-07T11:51:09.724Z,19.78
2023-05-07T11:53:14.260Z,19.81
2023-05-07T11:55:20.445Z,19.74
2023-05-07T11:57:23.676Z,19.78
2023-05-07T11:59:26.331Z,19.76
2023-05-07T12:01:29.043Z,19.71
2023-05-07T12:03:36.152Z,19.73
2023-05-07T12:05:42.776Z,19.74
2023-05-07T12:07:45.461Z,19.71
2023-05-07T12:09:48.394Z,19.69
2023-05-07T12:11:51.050Z,19.77
2023-05-07T12:13:58.874Z,19.70
2023-05-07T12:16:04.232Z,19.67
2023-05-07T12:18:07.322Z,19.68
2023-05-07T12:20:12.584Z,19.73
2023-05-07T12:22:15.339Z,19.69
2023-05-07T12:24:21.722Z,19.65
2023-05-07T12:26:25.241Z,19.60
2023-05-07T12:28:27.901Z,19.53
2023-05-07T12:30:33.650Z,19.51
2023-05-07T12:32:38.173Z,19.44
2023-05-07T12:34:45.298Z,19.37
2023-05-07T12:36:50.130Z,19.32
2023-05-07T12:38:52.712Z,19.26
2023-05-07T12:40:56.820Z,19.22
2023-05-07T12:43:01.161Z,19.17
2023-05-07T12:45:10.397Z,19.21
2023-05-07T12:47:13.580Z,19.22
2023-05-07T12:49:16.180Z,19.26
2023-05-07T12:51:19.259Z,19.29
2023-05-07T12:53:25.876Z,19.28
2023-05-07T12:55:32.716Z,19.30
2023-05-07T12:57:41.496Z,19.27
2023-05-07T12:59:44.121Z,19.13
2023-05-07T13:01:47.386Z,19.06
2023-05-07T13:03:51.377Z,19.05
2023-05-07T13:05:58.842Z,18.98
2023-05-07T13:08:01.607Z,18.94
2023-05-07T13:10:06.469Z,18.94
2023-05-07T13:12:11.888Z,18.88
2023-05-07T13:14:14.558Z,18.88
2023-05-07T13:16:17.189Z,18.85
2023-05-07T13:18:19.897Z,18.83
2023-05-07T13:20:22.541Z,18.81
2023-05-07T13:22:25.109Z,18.77
2023-05-07T13:24:27.650Z,18.61
2023-05-07T13:26:33.412Z,18.62
2023-05-07T13:28:36.112Z,18.66
2023-05-07T13:30:38.713Z,18.48
2023-05-07T13:32:41.307Z,18.68
2023-05-07T13:34:43.959Z,18.67
2023-05-07T13:36:46.483Z,18.45
2023-05-07T13:38:49.301Z,18.25
2023-05-07T13:40:51.862Z,18.15
2023-05-07T13:42:56.080Z,18.06
2023-05-07T13:44:58.865Z,18.08
2023-05-07T13:47:01.574Z,18.01
2023-05-07T13:49:04.151Z,17.83
2023-05-07T13:51:06.748Z,17.83
2023-05-07T13:53:10.364Z,17.94
2023-05-07T13:55:13.441Z,17.81
2023-05-07T13:57:16.153Z,17.64
2023-05-07T13:59:20.208Z,17.64
2023-05-07T14:01:22.937Z,17.70
2023-05-07T14:03:25.652Z,17.62
2023-05-07T14:05:29.822Z,17.78
2023-05-07T14:07:32.585Z,17.79
2023-05-07T14:09:35.280Z,17.72
2023-05-07T14:11:38.817Z,17.59
2023-05-07T14:13:41.394Z,17.41
2023-05-07T14:15:47.352Z,17.43
2023-05-07T14:17:49.999Z,17.43
2023-05-07T14:19:54.515Z,17.33
2023-05-07T14:21:59.251Z,17.25
2023-05-07T14:24:02.071Z,17.24
2023-05-07T14:26:04.818Z,17.22
2023-05-07T14:28:08.772Z,17.23
2023-05-07T14:30:12.375Z,17.22
2023-05-07T14:32:16.460Z,17.20
2023-05-07T14:34:19.029Z,17.19
2023-05-07T14:36:23.725Z,17.17
2023-05-07T14:38:26.333Z,17.16
2023-05-07T14:40:29.082Z,17.17
2023-05-07T14:42:31.623Z,17.24
2023-05-07T14:44:34.180Z,17.46
2023-05-07T14:46:36.867Z,17.30
2023-05-07T14:48:40.884Z,17.28
2023-05-07T14:50:43.446Z,17.28
2023-05-07T14:52:45.994Z,17.28
2023-05-07T14:54:48.631Z,17.30
2023-05-07T14:56:51.791Z,17.41
2023-05-07T14:58:54.521Z,17.48
2023-05-07T15:00:57.792Z,17.41
2023-05-07T15:03:07.460Z,17.36
2023-05-07T15:05:11.735Z,17.39
2023-05-07T15:07:15.914Z,17.43
2023-05-07T15:09:18.491Z,17.54
2023-05-07T15:11:21.089Z,17.54
2023-05-07T15:13:23.779Z,17.57
2023-05-07T15:15:26.602Z,17.59
2023-05-07T15:17:29.221Z,17.60
2023-05-07T15:19:31.843Z,17.65
2023-05-07T15:21:36.632Z,17.70
2023-05-07T15:23:39.775Z,17.73
2023-05-07T15:25:42.764Z,17.77
2023-05-07T15:27:45.558Z,17.76
2023-05-07T15:29:48.678Z,17.76
2023-05-07T15:31:51.460Z,17.76
2023-05-07T15:33:55.050Z,17.77
2023-05-07T15:35:59.730Z,17.79
2023-05-07T15:38:04.595Z,17.77
2023-05-07T15:40:08.949Z,17.81
2023-05-07T15:42:11.490Z,17.81
2023-05-07T15:44:14.085Z,17.82
2023-05-07T15:46:21.806Z,17.83
2023-05-07T15:48:24.511Z,17.85
2023-05-07T15:50:27.295Z,17.88
2023-05-07T15:52:30.351Z,17.90
2023-05-07T15:54:34.277Z,17.92
2023-05-07T15:56:36.952Z,17.91
2023-05-07T15:58:39.539Z,18.06
2023-05-07T16:00:42.260Z,18.02
2023-05-07T16:02:45.063Z,17.99
2023-05-07T16:04:47.716Z,17.92
2023-05-07T16:06:50.277Z,17.92
2023-05-07T16:08:52.927Z,17.88
2023-05-07T16:10:56.982Z,17.90
2023-05-07T16:12:59.626Z,17.87
2023-05-07T16:15:02.333Z,17.91
2023-05-07T16:17:05.061Z,17.91
2023-05-07T16:19:07.810Z,17.85
2023-05-07T16:21:10.369Z,17.83
2023-05-07T16:23:13.725Z,17.90
2023-05-07T16:25:16.627Z,17.84
2023-05-07T16:27:20.656Z,17.88
2023-05-07T16:29:23.674Z,17.81
2023-05-07T16:31:26.416Z,17.81
2023-05-07T16:33:28.951Z,17.81
2023-05-07T16:35:31.542Z,17.81
2023-05-07T16:37:34.610Z,17.78
2023-05-07T16:39:38.628Z,17.77
2023-05-07T16:41:41.188Z,17.76
2023-05-07T16:43:45.082Z,17.77
2023-05-07T16:45:48.277Z,17.74
2023-05-07T16:47:50.947Z,17.74
2023-05-07T16:49:53.559Z,17.73
2023-05-07T16:51:56.117Z,17.72
2023-05-07T16:53:58.671Z,17.75
2023-05-07T16:56:05.675Z,17.71
2023-05-07T16:58:09.123Z,17.67
2023-05-07T17:00:14.739Z,17.65
2023-05-07T17:02:17.354Z,17.91
2023-05-07T17:04:19.940Z,17.70
2023-05-07T17:06:22.539Z,17.76
2023-05-07T17:08:25.119Z,17.70
2023-05-07T17:10:28.734Z,17.61
2023-05-07T17:12:31.786Z,17.54
2023-05-07T17:14:34.359Z,17.54
2023-05-07T17:16:38.449Z,17.59
2023-05-07T17:18:41.759Z,17.53
2023-05-07T17:20:44.339Z,17.52
2023-05-07T17:22:47.222Z,17.48
2023-05-07T17:24:49.783Z,17.47
2023-05-07T17:26:52.359Z,17.51
2023-05-07T17:28:54.973Z,17.49
2023-05-07T17:30:57.545Z,17.45
2023-05-07T17:33:12.977Z,17.53
2023-05-07T17:39:26.527Z,17.41
2023-05-07T17:41:29.091Z,17.40
2023-05-07T17:43:31.670Z,17.40
2023-05-07T17:45:34.322Z,17.40
2023-05-07T17:47:39.529Z,17.41
2023-05-07T17:49:43.522Z,17.39
2023-05-07T17:51:54.115Z,17.39
2023-05-07T17:53:58.072Z,17.41
2023-05-07T17:56:00.626Z,17.46
2023-05-07T17:58:03.684Z,17.42
2023-05-07T18:00:09.760Z,17.45
2023-05-07T18:02:12.571Z,17.41
2023-05-07T18:04:15.289Z,17.40
2023-05-07T18:06:20.759Z,17.41
2023-05-07T18:08:23.385Z,17.43
2023-05-07T18:10:26.426Z,17.39
2023-05-07T18:12:29.095Z,17.36
2023-05-07T18:14:31.691Z,17.34
2023-05-07T18:16:35.227Z,17.34
2023-05-07T18:18:37.861Z,17.34
2023-05-07T18:20:40.445Z,17.33
2023-05-07T18:22:44.377Z,17.31
2023-05-07T18:24:46.965Z,17.30
2023-05-07T18:26:49.917Z,17.30
2023-05-07T18:28:52.528Z,17.27
2023-05-07T18:30:55.197Z,17.27
2023-05-07T18:32:57.793Z,17.26
2023-05-07T18:35:00.576Z,17.25
2023-05-07T18:37:03.189Z,17.23
2023-05-07T18:39:08.547Z,17.22
2023-05-07T18:41:11.139Z,17.23
2023-05-07T18:43:13.795Z,17.20
2023-05-07T18:45:16.643Z,17.19
2023-05-07T18:47:19.202Z,17.17
2023-05-07T18:49:21.821Z,17.16
2023-05-07T18:51:24.370Z,17.14
2023-05-07T18:53:26.928Z,17.12
2023-05-07T18:55:31.477Z,17.13
2023-05-07T18:57:34.627Z,17.08
2023-05-07T18:59:37.188Z,17.06
2023-05-07T19:01:39.827Z,17.08
2023-05-07T19:03:42.444Z,16.99
2023-05-07T19:05:45.830Z,17.00
2023-05-07T19:07:48.402Z,16.94
2023-05-07T19:10:03.696Z,16.83
2023-05-07T19:12:09.585Z,16.77
2023-05-07T19:14:12.183Z,16.75
2023-05-07T19:16:14.755Z,16.74
2023-05-07T19:18:17.367Z,16.73
2023-05-07T19:20:20.003Z,16.72
2023-05-07T19:22:22.747Z,16.71
2023-05-07T19:24:25.313Z,16.73
2023-05-07T19:26:27.880Z,16.71
2023-05-07T19:28:31.748Z,16.72
2023-05-07T19:30:34.334Z,16.71
2023-05-07T19:32:36.910Z,16.71
2023-05-07T19:34:39.486Z,16.72
2023-05-07T19:36:42.286Z,16.73
2023-05-07T19:38:45.127Z,16.71
2023-05-07T19:40:47.684Z,16.71
2023-05-07T19:42:50.402Z,16.72
2023-05-07T19:44:54.291Z,16.75
2023-05-07T19:46:57.944Z,16.76
2023-05-07T19:49:01.317Z,16.85
2023-05-07T19:51:03.915Z,16.73
2023-05-07T19:53:06.623Z,16.68
2023-05-07T19:55:09.834Z,16.65
2023-05-07T19:57:12.547Z,16.61
2023-05-07T19:59:15.159Z,16.61
2023-05-07T20:01:19.472Z,16.62
2023-05-07T20:03:22.240Z,16.62
2023-05-07T20:05:25.622Z,16.63
2023-05-07T20:07:28.193Z,16.66
2023-05-07T20:09:30.763Z,16.64
2023-05-07T20:11:33.346Z,16.66
2023-05-07T20:13:35.920Z,16.65
2023-05-07T20:15:38.741Z,16.73
2023-05-07T20:17:42.651Z,16.67
2023-05-07T20:19:45.319Z,16.65
2023-05-07T20:21:47.942Z,16.61
2023-05-07T20:23:51.092Z,16.59
2023-05-07T20:25:53.712Z,16.57
2023-05-07T20:27:57.046Z,16.56
2023-05-07T20:29:59.605Z,16.57
2023-05-07T20:32:02.264Z,16.56
2023-05-07T20:34:06.239Z,16.58
2023-05-07T20:36:08.965Z,16.57
2023-05-07T20:38:11.653Z,16.58
2023-05-07T20:40:15.082Z,16.58
2023-05-07T20:42:17.848Z,16.58
2023-05-07T20:44:23.101Z,16.57
2023-05-07T20:46:28.457Z,16.56
2023-05-07T20:48:32.015Z,16.56
2023-05-07T20:50:35.944Z,16.57
2023-05-07T20:52:38.613Z,16.61
2023-05-07T20:54:41.311Z,16.54
2023-05-07T20:56:43.918Z,16.52
2023-05-07T20:58:46.502Z,16.51
2023-05-07T21:00:49.064Z,16.50
2023-05-07T21:02:51.728Z,16.48
2023-05-07T21:04:54.331Z,16.50
2023-05-07T21:06:58.229Z,16.49
2023-05-07T21:09:00.820Z,16.48
2023-05-07T21:11:03.931Z,16.48
2023-05-07T21:13:06.525Z,16.49
2023-05-07T21:15:10.792Z,16.51
2023-05-07T21:17:13.339Z,16.49
2023-05-07T21:19:15.954Z,16.53
2023-05-07T21:21:18.558Z,16.49
2023-05-07T21:23:22.456Z,16.48
2023-05-07T21:25:25.019Z,16.47
2023-05-07T21:27:29.188Z,16.47
2023-05-07T21:29:31.726Z,16.48
2023-05-07T21:31:34.276Z,16.45
2023-05-07T21:33:36.881Z,16.45
2023-05-07T21:35:39.596Z,16.45
2023-05-07T21:37:42.221Z,16.44
2023-05-07T21:39:46.175Z,16.44
2023-05-07T21:41:48.818Z,16.43
2023-05-07T21:43:51.565Z,16.43
2023-05-07T21:45:54.165Z,16.42
2023-05-07T21:47:57.052Z,16.42
2023-05-07T21:49:59.667Z,16.43
2023-05-07T21:52:02.245Z,16.44
2023-05-07T21:54:05.180Z,16.44
2023-05-07T21:56:09.179Z,16.43
2023-05-07T21:58:11.744Z,16.44
2023-05-07T22:00:15.227Z,16.44
2023-05-07T22:02:18.140Z,16.42
2023-05-07T22:04:21.319Z,16.42
2023-05-07T22:06:25.145Z,16.43
2023-05-07T22:08:27.716Z,16.43
2023-05-07T22:10:30.409Z,16.44
2023-05-07T22:12:34.394Z,16.43
2023-05-07T22:14:36.988Z,16.41
2023-05-07T22:16:40.098Z,16.41
2023-05-07T22:18:43.741Z,16.41
2023-05-07T22:20:46.278Z,16.40
2023-05-07T22:22:52.633Z,16.40
2023-05-07T22:24:55.609Z,16.39
2023-05-07T22:26:58.169Z,16.39
2023-05-07T22:29:02.067Z,16.39
2023-05-07T22:31:04.696Z,16.38
2023-05-07T22:33:07.400Z,16.39
2023-05-07T22:35:11.087Z,16.40
2023-05-07T22:37:13.652Z,16.38
2023-05-07T22:39:16.424Z,16.38
2023-05-07T22:41:19.074Z,16.38
2023-05-07T22:43:21.660Z,16.39
2023-05-07T22:45:25.563Z,16.38
2023-05-07T22:47:30.796Z,16.38
2023-05-07T22:49:35.198Z,16.38
2023-05-07T22:51:37.776Z,16.38
2023-05-07T22:53:43.119Z,16.39
2023-05-07T22:55:45.704Z,16.39
2023-05-07T22:57:48.294Z,16.38
2023-05-07T22:59:54.741Z,16.36
2023-05-07T23:01:58.692Z,16.33
2023-05-07T23:04:01.296Z,16.33
2023-05-07T23:06:03.853Z,16.29
2023-05-07T23:08:07.000Z,16.29
2023-05-07T23:10:10.289Z,16.28
2023-05-07T23:12:13.005Z,16.29
2023-05-07T23:14:15.856Z,16.28
2023-05-07T23:16:18.536Z,16.29
2023-05-07T23:18:22.424Z,16.30
2023-05-07T23:20:24.996Z,16.31
2023-05-07T23:22:27.897Z,16.31
2023-05-07T23:24:30.492Z,16.31
2023-05-07T23:26:35.110Z,16.29
2023-05-07T23:28:37.671Z,16.30
2023-05-07T23:30:41.227Z,16.30
2023-05-07T23:32:43.829Z,16.31
2023-05-07T23:34:51.258Z,16.31
2023-05-07T23:36:54.583Z,16.30
2023-05-07T23:38:57.154Z,16.29
2023-05-07T23:40:59.736Z,16.27
2023-05-07T23:43:02.414Z,16.26
2023-05-07T23:45:05.692Z,16.23
2023-05-07T23:47:08.291Z,16.23
2023-05-07T23:49:10.840Z,16.22
2023-05-07T23:51:14.761Z,16.22
2023-05-07T23:53:17.321Z,16.21
2023-05-07T23:55:19.879Z,16.21
2023-05-07T23:57:22.442Z,16.20
2023-05-07T23:59:25.107Z,16.20
